Arnold Palmer Regional Airport

Airport
ICAO code: 
KLBE
Summary
ICAO Region: 
NAM
Territory: 
Location: 
Latrobe, Pennsylvania,
Coordinates: 
Aerial View: 
40° 16' 22.276" N, 79° 24' 20.61" W
Airport WX: 
Cumulonimbus
Metar
Observation
KLBE 021447Z 22014G25KT 20SM SCT026 BKN090 11/07 A2977
Station
Latrobe / Westmorland
Date/Time
2021-12-02 14:47:00
Wind direction
220°
Wind speed
14 kts
Lowest cloud amount
scattered clouds
Temperature
11°C
Dew point
7°C
Humidity
76%
Weather condition
n/a

Description

Arnold Palmer Regional Airport is a public use airport located 4 km southwest of the central business district of Latrobe, in Westmoreland County, Pennsylvania.

Climatology

Humid continental climate (Köppen climate classification Dfa) - characterized by four seasons: cold, windy, snowy winters, mild springs, hot, humid summers, and crisp and relatively short autumns. Precipitation reaches its lowest in January and February and peaks in summer and latter half of spring.

Runways

Designator Length Width Surface Rops
3/21 1096 23 ASP Yes/Yes
5/23 2134 30 ASP Yes/Yes
Airport map: 
Aerial View: 

SKYbrary Partners:

Safety knowledge contributed by: